createdAt,value
2019-02-23T00:00:59.782Z,10.05
2019-02-23T00:03:33.353Z,10.63
2019-02-23T00:06:06.911Z,7.28
2019-02-23T00:08:40.744Z,8.43
2019-02-23T00:11:15.127Z,11.90
2019-02-23T00:13:49.548Z,7.32
2019-02-23T00:16:23.075Z,8.50
2019-02-23T00:18:56.676Z,8.32
2019-02-23T00:21:30.222Z,8.40
2019-02-23T00:24:04.733Z,8.68
2019-02-23T00:26:38.423Z,8.20
2019-02-23T00:29:12.233Z,8.77
2019-02-23T00:31:46.708Z,8.48
2019-02-23T00:34:20.335Z,11.23
2019-02-23T00:36:53.848Z,8.32
2019-02-23T00:39:27.348Z,8.57
2019-02-23T00:42:00.848Z,8.43
2019-02-23T00:44:34.424Z,9.32
2019-02-23T00:47:08.113Z,10.45
2019-02-23T00:49:41.703Z,7.85
2019-02-23T00:52:16.163Z,9.10
2019-02-23T00:54:49.742Z,8.05
2019-02-23T00:57:23.536Z,12.82
2019-02-23T00:59:57.257Z,7.35
2019-02-23T01:02:30.776Z,7.82
2019-02-23T01:05:04.547Z,7.15
2019-02-23T01:07:38.244Z,10.40
2019-02-23T01:10:11.871Z,11.50
2019-02-23T01:12:45.576Z,8.27
2019-02-23T01:15:20.207Z,9.20
2019-02-23T01:17:53.914Z,9.25
2019-02-23T01:20:27.506Z,7.68
2019-02-23T01:23:01.052Z,7.03
2019-02-23T01:25:34.652Z,7.32
2019-02-23T01:28:08.309Z,7.00
2019-02-23T01:30:42.145Z,11.23
2019-02-23T01:33:15.704Z,10.90
2019-02-23T01:35:50.036Z,6.10
2019-02-23T01:38:23.597Z,9.48
2019-02-23T01:40:58.163Z,8.18
2019-02-23T01:43:31.878Z,7.37
2019-02-23T01:46:05.539Z,7.80
2019-02-23T01:48:39.129Z,9.63
2019-02-23T01:51:13.442Z,8.50
2019-02-23T01:53:46.963Z,6.75
2019-02-23T01:56:20.555Z,9.15
2019-02-23T01:58:54.291Z,9.52
2019-02-23T02:01:28.717Z,9.57
2019-02-23T02:04:02.434Z,9.25
2019-02-23T02:06:35.966Z,9.65
2019-02-23T02:09:09.645Z,9.45
2019-02-23T02:11:43.226Z,9.20
2019-02-23T02:14:16.907Z,8.88
2019-02-23T02:16:51.432Z,8.60
2019-02-23T02:19:24.914Z,8.70
2019-02-23T02:21:58.483Z,9.00
2019-02-23T02:24:32.019Z,7.32
2019-02-23T02:27:05.671Z,13.45
2019-02-23T02:29:39.436Z,11.20
2019-02-23T02:32:13.147Z,8.82
2019-02-23T02:34:46.727Z,9.93
2019-02-23T02:37:20.300Z,9.63
2019-02-23T02:39:54.078Z,7.40
2019-02-23T02:42:27.693Z,13.27
2019-02-23T02:45:01.388Z,10.98
2019-02-23T02:47:35.008Z,8.65
2019-02-23T02:50:08.685Z,8.57
2019-02-23T02:52:42.446Z,7.80
2019-02-23T02:55:16.207Z,10.70
2019-02-23T02:57:49.879Z,9.80
2019-02-23T03:00:23.564Z,11.85
2019-02-23T03:02:57.090Z,8.73
2019-02-23T03:05:32.976Z,8.80
2019-02-23T03:08:06.774Z,10.35
2019-02-23T03:10:40.465Z,12.20
2019-02-23T03:13:14.086Z,9.07
2019-02-23T03:15:49.476Z,11.18
2019-02-23T03:18:24.402Z,10.90
2019-02-23T03:20:58.777Z,9.50
2019-02-23T03:23:32.444Z,13.70
2019-02-23T03:26:06.001Z,10.18
2019-02-23T03:28:39.790Z,11.63
2019-02-23T03:31:13.560Z,8.93
2019-02-23T03:33:47.124Z,11.55
2019-02-23T03:36:20.772Z,11.88
2019-02-23T03:38:54.351Z,7.78
2019-02-23T03:41:27.870Z,15.55
2019-02-23T03:44:01.425Z,11.75
2019-02-23T03:46:35.202Z,10.18
2019-02-23T03:49:08.755Z,13.38
2019-02-23T03:51:43.287Z,21.02
2019-02-23T03:54:16.904Z,10.02
2019-02-23T03:56:51.507Z,10.70
2019-02-23T03:59:26.027Z,13.52
2019-02-23T04:01:59.716Z,10.20
2019-02-23T04:04:34.266Z,11.90
2019-02-23T04:07:08.700Z,13.30
2019-02-23T04:09:42.509Z,12.75
2019-02-23T04:12:16.088Z,11.25
2019-02-23T04:14:49.595Z,15.18
2019-02-23T04:17:23.194Z,13.13
2019-02-23T04:19:56.993Z,13.02
2019-02-23T04:22:30.684Z,12.37
2019-02-23T04:25:04.299Z,10.90
2019-02-23T04:27:37.847Z,18.87
2019-02-23T04:30:12.336Z,13.27
2019-02-23T04:32:46.032Z,13.75
2019-02-23T04:35:20.167Z,16.60
2019-02-23T04:37:54.230Z,19.37
2019-02-23T04:40:28.313Z,17.80
2019-02-23T04:43:02.684Z,18.87
2019-02-23T04:45:36.531Z,14.63
2019-02-23T04:48:10.174Z,14.50
2019-02-23T04:50:43.795Z,14.45
2019-02-23T04:53:17.915Z,15.20
2019-02-23T04:55:51.445Z,15.15
2019-02-23T04:58:26.935Z,14.65
2019-02-23T05:01:00.460Z,15.00
2019-02-23T05:03:34.050Z,21.67
2019-02-23T05:06:07.596Z,13.75
2019-02-23T05:08:41.160Z,15.15
2019-02-23T05:11:15.457Z,14.73
2019-02-23T05:13:49.212Z,12.52
2019-02-23T05:16:22.746Z,13.62
2019-02-23T05:18:56.279Z,16.17
2019-02-23T05:21:29.944Z,15.95
2019-02-23T05:24:03.469Z,12.68
2019-02-23T05:26:36.987Z,14.85
2019-02-23T05:29:10.541Z,15.55
2019-02-23T05:31:44.898Z,15.13
2019-02-23T05:34:18.575Z,18.42
2019-02-23T05:36:52.200Z,15.10
2019-02-23T05:39:25.807Z,13.40
2019-02-23T05:42:00.144Z,17.55
2019-02-23T05:44:33.797Z,14.40
2019-02-23T05:47:07.442Z,14.18
2019-02-23T05:49:41.160Z,18.92
2019-02-23T05:52:14.789Z,18.35
2019-02-23T05:54:48.588Z,14.87
2019-02-23T05:57:22.123Z,17.85
2019-02-23T05:59:55.733Z,15.70
2019-02-23T06:02:29.331Z,19.27
2019-02-23T06:05:02.923Z,17.77
2019-02-23T06:07:37.251Z,16.65
2019-02-23T06:10:11.777Z,15.32
2019-02-23T06:12:45.513Z,18.50
2019-02-23T06:15:19.208Z,18.02
2019-02-23T06:17:52.983Z,15.63
2019-02-23T06:20:27.476Z,16.75
2019-02-23T06:23:01.958Z,12.57
2019-02-23T06:25:35.592Z,18.58
2019-02-23T06:28:09.191Z,15.25
2019-02-23T06:30:42.956Z,19.95
2019-02-23T06:33:17.394Z,20.40
2019-02-23T06:35:51.919Z,17.52
2019-02-23T06:38:25.526Z,15.23
2019-02-23T06:41:00.004Z,16.10
2019-02-23T06:43:33.604Z,19.58
2019-02-23T06:46:07.368Z,17.48
2019-02-23T06:48:40.850Z,16.67
2019-02-23T06:51:14.449Z,15.55
2019-02-23T06:53:48.163Z,19.20
2019-02-23T06:56:21.881Z,22.95
2019-02-23T06:58:55.644Z,18.35
2019-02-23T07:01:29.262Z,14.07
2019-02-23T07:04:02.863Z,17.00
2019-02-23T07:06:36.514Z,16.48
2019-02-23T07:09:10.129Z,17.98
2019-02-23T07:11:43.752Z,19.60
2019-02-23T07:14:17.469Z,16.08
2019-02-23T07:16:51.051Z,17.70
2019-02-23T07:19:24.807Z,17.77
2019-02-23T07:21:58.706Z,18.15
2019-02-23T07:24:32.388Z,18.30
2019-02-23T07:27:05.960Z,16.65
2019-02-23T07:29:39.649Z,19.85
2019-02-23T07:32:13.272Z,20.27
2019-02-23T07:34:46.789Z,15.07
2019-02-23T07:37:20.309Z,17.00
2019-02-23T07:39:53.832Z,16.50
2019-02-23T07:42:27.377Z,15.32
2019-02-23T07:45:01.159Z,18.45
2019-02-23T07:47:35.050Z,17.05
2019-02-23T07:50:16.105Z,20.70
2019-02-23T07:52:50.711Z,16.15
2019-02-23T07:55:24.498Z,18.17
2019-02-23T07:57:58.099Z,17.33
2019-02-23T08:00:31.724Z,19.67
2019-02-23T08:03:05.277Z,21.10
2019-02-23T08:05:38.863Z,17.48
2019-02-23T08:08:12.590Z,16.15
2019-02-23T08:10:46.204Z,18.60
2019-02-23T08:13:20.525Z,20.15
2019-02-23T08:19:06.347Z,13.80
2019-02-23T08:21:44.042Z,11.82
2019-02-23T08:24:17.739Z,12.88
2019-02-23T08:26:51.591Z,17.58
2019-02-23T08:29:25.364Z,13.98
2019-02-23T08:31:58.985Z,17.40
2019-02-23T08:34:32.693Z,12.18
2019-02-23T08:37:06.286Z,15.40
2019-02-23T08:39:39.939Z,13.40
2019-02-23T08:42:13.583Z,14.18
2019-02-23T08:44:47.159Z,14.45
2019-02-23T08:47:20.775Z,14.00
2019-02-23T08:49:55.190Z,13.38
2019-02-23T08:52:28.796Z,10.35
2019-02-23T08:55:02.509Z,11.10
2019-02-23T08:57:37.003Z,14.52
2019-02-23T09:00:11.583Z,13.93
2019-02-23T09:02:45.340Z,12.93
2019-02-23T09:05:18.836Z,11.02
2019-02-23T09:07:52.443Z,10.57
2019-02-23T09:10:25.978Z,10.13
2019-02-23T09:12:59.642Z,12.23
2019-02-23T09:15:33.988Z,13.35
2019-02-23T09:18:07.582Z,10.23
2019-02-23T09:20:41.187Z,9.50
2019-02-23T09:23:14.966Z,10.25
2019-02-23T09:25:48.476Z,9.68
2019-02-23T09:28:22.113Z,12.20
2019-02-23T09:30:55.790Z,8.95
2019-02-23T09:33:29.346Z,9.45
2019-02-23T09:36:03.711Z,10.45
2019-02-23T09:38:37.416Z,10.80
2019-02-23T09:41:10.995Z,8.05
2019-02-23T09:43:45.298Z,7.40
2019-02-23T09:46:18.953Z,7.15
2019-02-23T09:48:52.460Z,7.40
2019-02-23T09:51:26.073Z,6.25
2019-02-23T09:53:59.736Z,7.35
2019-02-23T09:56:33.453Z,6.75
2019-02-23T09:59:07.761Z,6.68
2019-02-23T10:01:42.303Z,8.07
2019-02-23T10:04:16.103Z,8.75
2019-02-23T10:06:49.870Z,6.93
2019-02-23T10:09:23.371Z,7.72
2019-02-23T10:11:57.023Z,6.35
2019-02-23T10:14:30.640Z,6.18
2019-02-23T10:17:04.166Z,5.97
2019-02-23T10:19:37.766Z,8.27
2019-02-23T10:22:11.331Z,6.40
2019-02-23T10:24:44.900Z,8.48
2019-02-23T10:27:18.581Z,6.35
2019-02-23T10:29:52.282Z,10.13
2019-02-23T10:32:26.019Z,9.27
2019-02-23T10:35:00.370Z,11.95
2019-02-23T10:37:33.995Z,10.13
2019-02-23T10:40:07.567Z,9.07
2019-02-23T10:42:41.347Z,10.77
2019-02-23T10:45:14.912Z,9.02
2019-02-23T10:47:50.232Z,9.80
2019-02-23T10:50:22.673Z,7.78
2019-02-23T10:52:56.397Z,8.65
2019-02-23T10:55:29.954Z,7.80
2019-02-23T10:58:03.548Z,8.18
2019-02-23T11:00:37.870Z,10.07
2019-02-23T11:03:11.475Z,8.07
2019-02-23T11:05:45.292Z,10.93
2019-02-23T11:08:18.860Z,7.62
2019-02-23T11:10:52.462Z,9.05
2019-02-23T11:13:26.993Z,11.18
2019-02-23T11:16:00.694Z,9.00
2019-02-23T11:18:34.489Z,7.90
2019-02-23T11:21:08.179Z,7.32
2019-02-23T11:23:44.467Z,7.20
2019-02-23T11:26:16.189Z,7.85
2019-02-23T11:28:49.929Z,6.30
2019-02-23T11:31:24.454Z,6.35
2019-02-23T11:33:58.144Z,6.22
2019-02-23T11:36:32.477Z,5.93
2019-02-23T11:39:06.894Z,4.03
2019-02-23T11:41:40.489Z,5.85
2019-02-23T11:44:14.053Z,4.10
2019-02-23T11:46:59.819Z,5.00
2019-02-23T11:49:21.191Z,4.25
2019-02-23T11:51:54.932Z,4.87
2019-02-23T11:54:28.784Z,4.40
2019-02-23T11:57:02.427Z,7.37
2019-02-23T11:59:36.100Z,3.97
2019-02-23T12:02:09.832Z,4.75
2019-02-23T12:04:43.546Z,4.07
2019-02-23T12:07:18.144Z,6.57
2019-02-23T12:09:51.731Z,2.37
2019-02-23T12:12:26.075Z,6.03
2019-02-23T12:15:00.520Z,3.50
2019-02-23T12:17:34.320Z,5.28
2019-02-23T12:20:09.613Z,8.45
2019-02-23T12:22:43.199Z,6.35
2019-02-23T12:25:17.079Z,6.25
2019-02-23T12:27:50.693Z,6.82
2019-02-23T12:30:24.353Z,6.28
2019-02-23T12:32:59.341Z,5.28
2019-02-23T12:35:32.988Z,5.85
2019-02-23T12:38:07.304Z,5.53
2019-02-23T12:40:41.239Z,6.75
2019-02-23T12:43:14.892Z,5.12
2019-02-23T12:45:48.459Z,4.80
2019-02-23T12:48:22.018Z,5.00
2019-02-23T12:50:55.750Z,3.90
2019-02-23T12:53:29.357Z,7.22
2019-02-23T12:56:02.950Z,4.95
2019-02-23T12:58:36.833Z,4.45
2019-02-23T13:01:10.402Z,3.45
2019-02-23T13:03:44.963Z,4.10
2019-02-23T13:06:18.692Z,4.68
2019-02-23T13:09:04.232Z,4.05
2019-02-23T13:11:38.685Z,4.65
2019-02-23T13:14:24.309Z,4.72
2019-02-23T13:17:15.770Z,4.95
2019-02-23T13:20:17.130Z,5.60
2019-02-23T13:38:40.839Z,4.10
2019-02-23T13:41:17.023Z,3.20
2019-02-23T13:57:39.826Z,3.70
2019-02-23T14:00:16.451Z,4.50
2019-02-23T14:02:52.929Z,4.20
2019-02-23T14:05:35.104Z,6.90
2019-02-23T14:08:28.630Z,3.00
2019-02-23T14:11:12.155Z,3.42
2019-02-23T14:14:06.655Z,4.90
2019-02-23T14:16:53.701Z,2.85
2019-02-23T14:19:29.200Z,3.22
2019-02-23T14:22:32.636Z,2.87
2019-02-23T14:25:23.051Z,7.45
2019-02-23T14:28:18.382Z,3.30
2019-02-23T14:31:02.789Z,3.05
2019-02-23T14:33:52.215Z,5.00
2019-02-23T14:36:44.232Z,4.20
2019-02-23T14:39:27.857Z,3.78
2019-02-23T14:42:03.521Z,4.10
2019-02-23T14:44:41.921Z,7.25
2019-02-23T14:47:16.497Z,3.92
2019-02-23T14:50:14.708Z,4.78
2019-02-23T15:06:26.059Z,5.50
2019-02-23T15:09:26.356Z,5.05
2019-02-23T15:12:01.396Z,6.30
2019-02-23T15:14:39.806Z,4.00
2019-02-23T15:17:30.946Z,2.00
2019-02-23T15:22:57.001Z,4.00
2019-02-23T15:25:43.477Z,3.05
2019-02-23T15:28:37.782Z,3.37
2019-02-23T15:44:22.183Z,6.87
2019-02-23T15:47:13.819Z,2.40
2019-02-23T15:49:47.478Z,4.50
2019-02-23T15:52:22.045Z,2.45
2019-02-23T15:54:55.678Z,2.83
2019-02-23T15:57:29.376Z,3.10
2019-02-23T16:00:03.100Z,5.00
2019-02-23T16:02:36.891Z,4.03
2019-02-23T16:05:10.549Z,3.45
2019-02-23T16:07:44.403Z,4.62
2019-02-23T16:10:18.166Z,4.75
2019-02-23T16:12:51.745Z,5.47
2019-02-23T16:15:25.380Z,6.68
2019-02-23T16:17:59.877Z,4.20
2019-02-23T16:20:33.617Z,3.62
2019-02-23T16:23:08.103Z,3.42
2019-02-23T16:25:41.717Z,4.47
2019-02-23T16:28:16.098Z,3.05
2019-02-23T16:30:49.804Z,5.43
2019-02-23T16:33:23.359Z,3.12
2019-02-23T16:35:57.084Z,3.90
2019-02-23T16:38:31.281Z,3.50
2019-02-23T16:41:05.138Z,3.53
2019-02-23T16:43:39.648Z,5.15
2019-02-23T16:46:13.245Z,4.80
2019-02-23T16:48:47.059Z,5.15
2019-02-23T16:51:20.746Z,5.85
2019-02-23T16:53:54.502Z,5.60
2019-02-23T16:56:29.979Z,5.62
2019-02-23T16:59:03.603Z,6.35
2019-02-23T17:01:37.201Z,3.65
2019-02-23T17:04:10.995Z,6.32
2019-02-23T17:06:44.659Z,5.70
2019-02-23T17:09:18.216Z,4.60
2019-02-23T17:11:51.918Z,4.00
2019-02-23T17:14:25.636Z,4.43
2019-02-23T17:16:59.250Z,7.70
2019-02-23T17:19:33.518Z,5.60
2019-02-23T17:22:08.041Z,7.07
2019-02-23T17:24:41.912Z,11.52
2019-02-23T17:27:15.607Z,7.25
2019-02-23T17:29:49.163Z,5.45
2019-02-23T17:32:22.788Z,4.47
2019-02-23T17:34:56.371Z,4.95
2019-02-23T17:37:30.014Z,6.05
2019-02-23T17:40:03.747Z,5.93
2019-02-23T17:42:37.343Z,4.37
2019-02-23T17:45:11.055Z,3.92
2019-02-23T17:47:44.756Z,6.35
2019-02-23T17:50:18.380Z,5.12
2019-02-23T17:52:53.320Z,4.85
2019-02-23T17:55:27.218Z,6.18
2019-02-23T17:58:01.003Z,6.50
2019-02-23T18:00:34.651Z,4.35
2019-02-23T18:03:08.238Z,3.08
2019-02-23T18:05:41.907Z,4.60
2019-02-23T18:08:15.661Z,6.45
2019-02-23T18:10:49.431Z,4.45
2019-02-23T18:13:22.978Z,5.30
2019-02-23T18:15:56.731Z,4.50
2019-02-23T18:18:31.259Z,4.32
2019-02-23T18:21:04.974Z,6.22
2019-02-23T18:23:38.727Z,4.15
2019-02-23T18:26:18.969Z,3.67
2019-02-23T18:28:46.084Z,6.00
2019-02-23T18:31:19.951Z,3.85
2019-02-23T18:33:53.680Z,3.58
2019-02-23T18:36:27.245Z,3.80
2019-02-23T18:39:00.772Z,3.28
2019-02-23T18:41:34.340Z,3.90
2019-02-23T18:44:08.050Z,3.05
2019-02-23T18:46:42.658Z,3.08
2019-02-23T18:49:17.029Z,2.85
2019-02-23T18:51:51.366Z,2.55
2019-02-23T18:54:25.048Z,3.95
2019-02-23T18:56:59.491Z,4.28
2019-02-23T18:59:33.876Z,4.37
2019-02-23T19:02:07.598Z,3.60
2019-02-23T19:04:41.185Z,3.33
2019-02-23T19:07:14.795Z,4.78
2019-02-23T19:09:49.101Z,2.65
2019-02-23T19:12:22.828Z,4.62
2019-02-23T19:14:56.530Z,3.97
2019-02-23T19:17:30.095Z,5.32
2019-02-23T19:20:03.620Z,6.15
2019-02-23T19:22:37.200Z,5.40
2019-02-23T19:25:12.106Z,4.40
2019-02-23T19:27:45.779Z,6.53
2019-02-23T19:30:19.394Z,5.45
2019-02-23T19:32:52.944Z,7.90
2019-02-23T19:35:26.587Z,3.05
2019-02-23T19:38:00.243Z,3.72
2019-02-23T19:40:33.824Z,6.68
2019-02-23T19:43:07.429Z,5.22
2019-02-23T19:45:41.201Z,3.55
2019-02-23T19:48:14.866Z,3.95
2019-02-23T19:50:48.519Z,3.95
2019-02-23T19:53:22.099Z,2.92
2019-02-23T19:55:55.791Z,2.50
2019-02-23T19:58:29.357Z,2.15
2019-02-23T20:01:02.941Z,5.22
2019-02-23T20:03:37.316Z,5.40
2019-02-23T20:06:11.068Z,2.92
2019-02-23T20:08:44.845Z,4.07
2019-02-23T20:11:18.394Z,2.42
2019-02-23T20:13:52.148Z,3.60
2019-02-23T20:16:25.718Z,2.50
2019-02-23T20:18:59.513Z,3.75
2019-02-23T20:21:33.223Z,3.55
2019-02-23T20:24:07.008Z,7.07
2019-02-23T20:26:42.174Z,2.90
2019-02-23T20:29:14.345Z,4.62
2019-02-23T20:31:47.870Z,4.12
2019-02-23T20:34:21.527Z,3.50
2019-02-23T20:36:55.249Z,4.10
2019-02-23T20:39:28.868Z,6.95
2019-02-23T20:42:02.595Z,5.28
2019-02-23T20:44:36.353Z,3.58
2019-02-23T20:47:10.880Z,4.70
2019-02-23T20:49:44.546Z,3.83
2019-02-23T20:52:18.912Z,4.40
2019-02-23T20:54:52.892Z,3.47
2019-02-23T20:57:27.247Z,5.30
2019-02-23T21:00:00.902Z,2.97
2019-02-23T21:02:34.750Z,3.78
2019-02-23T21:05:10.360Z,3.20
2019-02-23T21:07:44.135Z,5.70
2019-02-23T21:10:18.640Z,2.87
2019-02-23T21:12:53.190Z,3.03
2019-02-23T21:15:26.702Z,2.97
2019-02-23T21:18:00.315Z,5.47
2019-02-23T21:20:34.626Z,2.17
2019-02-23T21:23:08.149Z,2.42
2019-02-23T21:25:41.782Z,2.42
2019-02-23T21:28:15.576Z,1.70
2019-02-23T21:30:50.139Z,2.67
2019-02-23T21:33:23.956Z,2.70
2019-02-23T21:35:57.671Z,1.87
2019-02-23T21:38:31.291Z,3.05
2019-02-23T21:41:04.919Z,2.65
2019-02-23T21:43:38.411Z,2.05
2019-02-23T21:46:13.917Z,5.03
2019-02-23T21:48:46.434Z,3.35
2019-02-23T21:51:20.131Z,2.33
2019-02-23T21:53:53.802Z,3.83
2019-02-23T21:56:27.504Z,1.85
2019-02-23T21:59:01.346Z,3.65
2019-02-23T22:01:35.860Z,3.28
2019-02-23T22:04:09.585Z,2.28
2019-02-23T22:06:43.229Z,3.65
2019-02-23T22:09:17.014Z,3.55
2019-02-23T22:11:50.875Z,3.30
2019-02-23T22:14:25.300Z,3.28
2019-02-23T22:16:59.000Z,3.17
2019-02-23T22:19:32.567Z,3.55
2019-02-23T22:22:06.174Z,2.45
2019-02-23T22:24:39.777Z,3.47
2019-02-23T22:27:13.357Z,2.70
2019-02-23T22:29:46.928Z,5.35
2019-02-23T22:32:21.222Z,3.25
2019-02-23T22:34:54.944Z,4.05
2019-02-23T22:37:28.578Z,5.18
2019-02-23T22:40:02.105Z,4.78
2019-02-23T22:42:35.790Z,2.05
2019-02-23T22:45:09.484Z,3.83
2019-02-23T22:47:43.318Z,2.65
2019-02-23T22:50:16.888Z,2.53
2019-02-23T22:52:50.626Z,3.58
2019-02-23T22:55:24.279Z,2.67
2019-02-23T22:57:58.029Z,4.68
2019-02-23T23:00:32.533Z,2.78
2019-02-23T23:03:06.191Z,4.03
2019-02-23T23:05:39.859Z,7.90
2019-02-23T23:08:13.406Z,3.05
2019-02-23T23:10:47.157Z,2.87
2019-02-23T23:13:20.794Z,2.50
2019-02-23T23:15:54.647Z,2.28
2019-02-23T23:18:29.092Z,1.95
2019-02-23T23:21:02.770Z,1.85
2019-02-23T23:23:36.549Z,3.70
2019-02-23T23:26:11.551Z,2.00
2019-02-23T23:28:43.931Z,2.92
2019-02-23T23:31:17.534Z,2.92
2019-02-23T23:33:51.156Z,2.20
2019-02-23T23:36:24.971Z,2.40
2019-02-23T23:38:59.536Z,2.25
2019-02-23T23:41:33.159Z,1.83
2019-02-23T23:44:07.512Z,4.93
2019-02-23T23:46:41.230Z,3.85
2019-02-23T23:49:15.043Z,2.20
2019-02-23T23:51:48.714Z,3.05
2019-02-23T23:54:23.155Z,4.50
2019-02-23T23:56:56.848Z,4.37
2019-02-23T23:59:31.142Z,2.50
